sensor_id;sensor_type;location;lat;lon;timestamp;P1;durP1;ratioP1;P2;durP2;ratioP2
23682;SDS011;24897;53.514;10.482;2023-01-05T00:00:11;44.33;;;28.20;;
23682;SDS011;24897;53.514;10.482;2023-01-05T00:02:56;40.57;;;27.77;;
23682;SDS011;24897;53.514;10.482;2023-01-05T00:05:40;37.97;;;27.80;;
23682;SDS011;24897;53.514;10.482;2023-01-05T00:08:24;44.20;;;27.43;;
23682;SDS011;24897;53.514;10.482;2023-01-05T00:11:10;36.83;;;27.40;;
23682;SDS011;24897;53.514;10.482;2023-01-05T00:14:23;39.93;;;27.20;;
23682;SDS011;24897;53.514;10.482;2023-01-05T00:17:28;36.00;;;26.50;;
23682;SDS011;24897;53.514;10.482;2023-01-05T00:20:31;35.40;;;26.37;;
23682;SDS011;24897;53.514;10.482;2023-01-05T00:23:34;37.87;;;25.73;;
23682;SDS011;24897;53.514;10.482;2023-01-05T00:26:18;39.70;;;25.63;;
23682;SDS011;24897;53.514;10.482;2023-01-05T00:29:03;32.47;;;25.77;;
23682;SDS011;24897;53.514;10.482;2023-01-05T00:31:47;33.50;;;25.97;;
23682;SDS011;24897;53.514;10.482;2023-01-05T00:34:32;35.90;;;27.13;;
23682;SDS011;24897;53.514;10.482;2023-01-05T00:37:17;32.93;;;26.03;;
23682;SDS011;24897;53.514;10.482;2023-01-05T00:40:14;34.43;;;25.70;;
23682;SDS011;24897;53.514;10.482;2023-01-05T00:43:00;34.87;;;26.03;;
23682;SDS011;24897;53.514;10.482;2023-01-05T00:45:44;35.23;;;25.90;;
23682;SDS011;24897;53.514;10.482;2023-01-05T00:48:28;31.13;;;26.53;;
23682;SDS011;24897;53.514;10.482;2023-01-05T00:51:12;34.93;;;26.50;;
23682;SDS011;24897;53.514;10.482;2023-01-05T00:53:56;32.87;;;26.50;;
23682;SDS011;24897;53.514;10.482;2023-01-05T00:56:40;33.27;;;25.23;;
23682;SDS011;24897;53.514;10.482;2023-01-05T00:59:24;33.10;;;26.27;;
23682;SDS011;24897;53.514;10.482;2023-01-05T01:02:08;32.93;;;26.17;;
23682;SDS011;24897;53.514;10.482;2023-01-05T01:04:53;39.17;;;27.90;;
23682;SDS011;24897;53.514;10.482;2023-01-05T01:07:37;35.13;;;27.27;;
23682;SDS011;24897;53.514;10.482;2023-01-05T01:10:21;34.60;;;26.27;;
23682;SDS011;24897;53.514;10.482;2023-01-05T01:13:07;39.70;;;26.57;;
23682;SDS011;24897;53.514;10.482;2023-01-05T01:15:52;34.83;;;26.50;;
23682;SDS011;24897;53.514;10.482;2023-01-05T01:18:36;37.63;;;27.27;;
23682;SDS011;24897;53.514;10.482;2023-01-05T01:21:20;34.30;;;26.60;;
23682;SDS011;24897;53.514;10.482;2023-01-05T01:24:04;35.33;;;27.50;;
23682;SDS011;24897;53.514;10.482;2023-01-05T01:26:49;35.17;;;27.10;;
23682;SDS011;24897;53.514;10.482;2023-01-05T01:29:33;36.47;;;28.40;;
23682;SDS011;24897;53.514;10.482;2023-01-05T01:32:18;33.07;;;27.13;;
23682;SDS011;24897;53.514;10.482;2023-01-05T01:35:03;34.83;;;27.10;;
23682;SDS011;24897;53.514;10.482;2023-01-05T01:37:47;36.07;;;27.57;;
23682;SDS011;24897;53.514;10.482;2023-01-05T01:40:39;37.07;;;28.27;;
23682;SDS011;24897;53.514;10.482;2023-01-05T01:46:44;33.83;;;27.10;;
23682;SDS011;24897;53.514;10.482;2023-01-05T01:49:28;30.80;;;26.47;;
23682;SDS011;24897;53.514;10.482;2023-01-05T01:52:13;30.03;;;26.73;;
23682;SDS011;24897;53.514;10.482;2023-01-05T01:54:57;33.77;;;27.93;;
23682;SDS011;24897;53.514;10.482;2023-01-05T01:57:43;33.47;;;26.60;;
23682;SDS011;24897;53.514;10.482;2023-01-05T02:00:30;35.03;;;27.47;;
23682;SDS011;24897;53.514;10.482;2023-01-05T02:03:14;31.10;;;27.50;;
23682;SDS011;24897;53.514;10.482;2023-01-05T02:05:58;32.33;;;27.93;;
23682;SDS011;24897;53.514;10.482;2023-01-05T02:08:43;31.90;;;27.87;;
23682;SDS011;24897;53.514;10.482;2023-01-05T02:14:28;29.47;;;26.33;;
23682;SDS011;24897;53.514;10.482;2023-01-05T02:26:53;30.57;;;27.40;;
23682;SDS011;24897;53.514;10.482;2023-01-05T02:36:17;28.80;;;25.93;;
23682;SDS011;24897;53.514;10.482;2023-01-05T02:39:24;29.13;;;26.13;;
23682;SDS011;24897;53.514;10.482;2023-01-05T02:42:26;29.70;;;26.60;;
23682;SDS011;24897;53.514;10.482;2023-01-05T02:45:13;30.27;;;27.00;;
23682;SDS011;24897;53.514;10.482;2023-01-05T02:47:58;30.70;;;27.03;;
23682;SDS011;24897;53.514;10.482;2023-01-05T02:50:55;32.27;;;28.33;;
23682;SDS011;24897;53.514;10.482;2023-01-05T02:53:46;30.77;;;27.57;;
23682;SDS011;24897;53.514;10.482;2023-01-05T02:56:43;30.03;;;26.87;;
23682;SDS011;24897;53.514;10.482;2023-01-05T02:59:46;32.97;;;28.27;;
23682;SDS011;24897;53.514;10.482;2023-01-05T03:02:34;32.53;;;26.93;;
23682;SDS011;24897;53.514;10.482;2023-01-05T03:05:23;29.17;;;25.70;;
23682;SDS011;24897;53.514;10.482;2023-01-05T03:08:11;29.03;;;26.00;;
23682;SDS011;24897;53.514;10.482;2023-01-05T03:11:05;29.93;;;26.90;;
23682;SDS011;24897;53.514;10.482;2023-01-05T03:14:15;29.40;;;26.43;;
23682;SDS011;24897;53.514;10.482;2023-01-05T03:17:01;28.83;;;25.83;;
23682;SDS011;24897;53.514;10.482;2023-01-05T03:19:48;29.87;;;26.70;;
23682;SDS011;24897;53.514;10.482;2023-01-05T03:22:35;28.80;;;25.73;;
23682;SDS011;24897;53.514;10.482;2023-01-05T03:25:41;29.53;;;26.63;;
23682;SDS011;24897;53.514;10.482;2023-01-05T03:28:47;28.33;;;25.53;;
23682;SDS011;24897;53.514;10.482;2023-01-05T03:32:00;29.17;;;26.27;;
23682;SDS011;24897;53.514;10.482;2023-01-05T03:35:14;28.80;;;25.93;;
23682;SDS011;24897;53.514;10.482;2023-01-05T03:41:14;27.80;;;24.93;;
23682;SDS011;24897;53.514;10.482;2023-01-05T03:44:00;27.73;;;25.27;;
23682;SDS011;24897;53.514;10.482;2023-01-05T03:46:45;28.70;;;25.70;;
23682;SDS011;24897;53.514;10.482;2023-01-05T03:49:30;27.80;;;25.10;;
23682;SDS011;24897;53.514;10.482;2023-01-05T03:52:14;27.97;;;25.27;;
23682;SDS011;24897;53.514;10.482;2023-01-05T03:54:58;29.47;;;26.57;;
23682;SDS011;24897;53.514;10.482;2023-01-05T03:57:42;29.40;;;26.50;;
23682;SDS011;24897;53.514;10.482;2023-01-05T04:00:27;27.93;;;25.10;;
23682;SDS011;24897;53.514;10.482;2023-01-05T04:03:11;28.83;;;26.13;;
23682;SDS011;24897;53.514;10.482;2023-01-05T04:05:55;29.40;;;26.70;;
23682;SDS011;24897;53.514;10.482;2023-01-05T04:08:39;29.37;;;26.57;;
23682;SDS011;24897;53.514;10.482;2023-01-05T04:11:24;27.80;;;24.97;;
23682;SDS011;24897;53.514;10.482;2023-01-05T04:14:09;28.40;;;25.37;;
23682;SDS011;24897;53.514;10.482;2023-01-05T04:16:53;26.87;;;24.23;;
23682;SDS011;24897;53.514;10.482;2023-01-05T04:19:37;27.57;;;24.97;;
23682;SDS011;24897;53.514;10.482;2023-01-05T04:22:21;28.60;;;25.60;;
23682;SDS011;24897;53.514;10.482;2023-01-05T04:25:05;27.90;;;25.23;;
23682;SDS011;24897;53.514;10.482;2023-01-05T04:27:50;28.40;;;25.43;;
23682;SDS011;24897;53.514;10.482;2023-01-05T04:30:34;28.80;;;25.87;;
23682;SDS011;24897;53.514;10.482;2023-01-05T04:33:19;29.30;;;26.10;;
23682;SDS011;24897;53.514;10.482;2023-01-05T04:36:04;27.93;;;25.20;;
23682;SDS011;24897;53.514;10.482;2023-01-05T04:38:49;29.23;;;25.67;;
23682;SDS011;24897;53.514;10.482;2023-01-05T04:41:33;28.27;;;25.23;;
23682;SDS011;24897;53.514;10.482;2023-01-05T04:44:17;29.10;;;25.57;;
23682;SDS011;24897;53.514;10.482;2023-01-05T04:47:01;28.80;;;25.47;;
23682;SDS011;24897;53.514;10.482;2023-01-05T04:49:45;28.60;;;25.70;;
23682;SDS011;24897;53.514;10.482;2023-01-05T04:52:29;27.83;;;24.93;;
23682;SDS011;24897;53.514;10.482;2023-01-05T04:55:14;28.13;;;25.13;;
23682;SDS011;24897;53.514;10.482;2023-01-05T04:57:58;28.50;;;25.73;;
23682;SDS011;24897;53.514;10.482;2023-01-05T05:00:42;28.67;;;25.53;;
23682;SDS011;24897;53.514;10.482;2023-01-05T05:03:26;28.23;;;25.37;;
23682;SDS011;24897;53.514;10.482;2023-01-05T05:06:10;27.77;;;24.90;;
23682;SDS011;24897;53.514;10.482;2023-01-05T05:08:55;27.77;;;25.07;;
23682;SDS011;24897;53.514;10.482;2023-01-05T05:11:39;28.17;;;25.33;;
23682;SDS011;24897;53.514;10.482;2023-01-05T05:14:23;29.03;;;25.43;;
23682;SDS011;24897;53.514;10.482;2023-01-05T05:17:07;28.20;;;25.23;;
23682;SDS011;24897;53.514;10.482;2023-01-05T05:19:51;29.27;;;25.23;;
23682;SDS011;24897;53.514;10.482;2023-01-05T05:22:35;28.10;;;25.23;;
23682;SDS011;24897;53.514;10.482;2023-01-05T05:25:19;27.13;;;24.40;;
23682;SDS011;24897;53.514;10.482;2023-01-05T05:28:03;27.13;;;24.73;;
23682;SDS011;24897;53.514;10.482;2023-01-05T05:30:48;27.50;;;24.80;;
23682;SDS011;24897;53.514;10.482;2023-01-05T05:33:32;29.33;;;25.77;;
23682;SDS011;24897;53.514;10.482;2023-01-05T05:36:16;30.47;;;26.20;;
23682;SDS011;24897;53.514;10.482;2023-01-05T05:39:01;27.63;;;25.00;;
23682;SDS011;24897;53.514;10.482;2023-01-05T05:41:45;28.90;;;25.90;;
23682;SDS011;24897;53.514;10.482;2023-01-05T05:44:29;29.53;;;26.60;;
23682;SDS011;24897;53.514;10.482;2023-01-05T05:47:13;28.00;;;25.20;;
23682;SDS011;24897;53.514;10.482;2023-01-05T05:49:57;27.90;;;25.10;;
23682;SDS011;24897;53.514;10.482;2023-01-05T05:52:41;29.43;;;26.13;;
23682;SDS011;24897;53.514;10.482;2023-01-05T05:55:25;30.13;;;26.17;;
23682;SDS011;24897;53.514;10.482;2023-01-05T05:58:09;30.07;;;27.20;;
23682;SDS011;24897;53.514;10.482;2023-01-05T06:00:57;29.63;;;26.60;;
23682;SDS011;24897;53.514;10.482;2023-01-05T06:03:42;28.60;;;25.70;;
23682;SDS011;24897;53.514;10.482;2023-01-05T06:06:26;27.43;;;24.60;;
23682;SDS011;24897;53.514;10.482;2023-01-05T06:09:10;28.53;;;25.83;;
23682;SDS011;24897;53.514;10.482;2023-01-05T06:11:54;27.93;;;25.03;;
23682;SDS011;24897;53.514;10.482;2023-01-05T06:14:38;29.27;;;25.87;;
23682;SDS011;24897;53.514;10.482;2023-01-05T06:17:22;27.90;;;25.20;;
23682;SDS011;24897;53.514;10.482;2023-01-05T06:20:06;29.10;;;26.30;;
23682;SDS011;24897;53.514;10.482;2023-01-05T06:22:52;28.70;;;25.80;;
23682;SDS011;24897;53.514;10.482;2023-01-05T06:25:36;30.67;;;27.07;;
23682;SDS011;24897;53.514;10.482;2023-01-05T06:28:20;31.30;;;27.53;;
23682;SDS011;24897;53.514;10.482;2023-01-05T06:31:04;29.70;;;26.70;;
23682;SDS011;24897;53.514;10.482;2023-01-05T06:33:48;29.57;;;26.37;;
23682;SDS011;24897;53.514;10.482;2023-01-05T06:36:32;30.07;;;27.13;;
23682;SDS011;24897;53.514;10.482;2023-01-05T06:39:17;28.47;;;25.60;;
23682;SDS011;24897;53.514;10.482;2023-01-05T06:42:00;28.00;;;25.23;;
23682;SDS011;24897;53.514;10.482;2023-01-05T06:44:45;27.60;;;24.87;;
23682;SDS011;24897;53.514;10.482;2023-01-05T06:47:29;29.10;;;25.73;;
23682;SDS011;24897;53.514;10.482;2023-01-05T06:50:13;27.97;;;25.03;;
23682;SDS011;24897;53.514;10.482;2023-01-05T06:52:57;29.27;;;25.93;;
23682;SDS011;24897;53.514;10.482;2023-01-05T06:55:42;28.27;;;25.30;;
23682;SDS011;24897;53.514;10.482;2023-01-05T06:58:27;28.77;;;25.67;;
23682;SDS011;24897;53.514;10.482;2023-01-05T07:01:11;29.87;;;26.23;;
23682;SDS011;24897;53.514;10.482;2023-01-05T07:03:55;29.70;;;25.37;;
23682;SDS011;24897;53.514;10.482;2023-01-05T07:06:39;29.40;;;26.30;;
23682;SDS011;24897;53.514;10.482;2023-01-05T07:09:23;29.63;;;26.37;;
23682;SDS011;24897;53.514;10.482;2023-01-05T07:12:07;29.70;;;26.73;;
23682;SDS011;24897;53.514;10.482;2023-01-05T07:14:52;28.67;;;25.83;;
23682;SDS011;24897;53.514;10.482;2023-01-05T07:17:36;27.77;;;24.97;;
23682;SDS011;24897;53.514;10.482;2023-01-05T07:20:20;27.27;;;24.47;;
23682;SDS011;24897;53.514;10.482;2023-01-05T07:23:04;25.33;;;22.63;;
23682;SDS011;24897;53.514;10.482;2023-01-05T07:25:48;25.20;;;22.60;;
23682;SDS011;24897;53.514;10.482;2023-01-05T07:28:33;26.77;;;22.97;;
23682;SDS011;24897;53.514;10.482;2023-01-05T07:31:18;27.63;;;23.80;;
23682;SDS011;24897;53.514;10.482;2023-01-05T07:34:02;25.20;;;22.90;;
23682;SDS011;24897;53.514;10.482;2023-01-05T07:36:46;26.37;;;23.67;;
23682;SDS011;24897;53.514;10.482;2023-01-05T07:39:31;24.87;;;22.33;;
23682;SDS011;24897;53.514;10.482;2023-01-05T07:42:15;30.97;;;23.33;;
23682;SDS011;24897;53.514;10.482;2023-01-05T07:44:59;25.90;;;23.40;;
23682;SDS011;24897;53.514;10.482;2023-01-05T07:47:44;28.47;;;24.10;;
23682;SDS011;24897;53.514;10.482;2023-01-05T07:50:29;29.30;;;25.60;;
23682;SDS011;24897;53.514;10.482;2023-01-05T07:53:14;27.33;;;24.63;;
23682;SDS011;24897;53.514;10.482;2023-01-05T07:55:59;27.33;;;24.47;;
23682;SDS011;24897;53.514;10.482;2023-01-05T07:58:44;27.67;;;24.53;;
23682;SDS011;24897;53.514;10.482;2023-01-05T08:01:28;29.60;;;25.00;;
23682;SDS011;24897;53.514;10.482;2023-01-05T08:04:12;26.80;;;24.00;;
23682;SDS011;24897;53.514;10.482;2023-01-05T08:06:56;29.87;;;26.37;;
23682;SDS011;24897;53.514;10.482;2023-01-05T08:09:40;29.80;;;24.63;;
23682;SDS011;24897;53.514;10.482;2023-01-05T08:12:44;29.93;;;25.50;;
23682;SDS011;24897;53.514;10.482;2023-01-05T08:15:47;29.13;;;26.03;;
23682;SDS011;24897;53.514;10.482;2023-01-05T08:18:31;31.83;;;26.23;;
23682;SDS011;24897;53.514;10.482;2023-01-05T08:21:15;31.03;;;26.80;;
23682;SDS011;24897;53.514;10.482;2023-01-05T08:24:00;31.70;;;28.20;;
23682;SDS011;24897;53.514;10.482;2023-01-05T08:26:45;35.33;;;27.57;;
23682;SDS011;24897;53.514;10.482;2023-01-05T08:29:31;38.53;;;29.90;;
23682;SDS011;24897;53.514;10.482;2023-01-05T08:32:16;40.27;;;28.87;;
23682;SDS011;24897;53.514;10.482;2023-01-05T08:35:00;42.63;;;29.93;;
23682;SDS011;24897;53.514;10.482;2023-01-05T08:37:44;38.90;;;28.30;;
23682;SDS011;24897;53.514;10.482;2023-01-05T08:40:28;42.10;;;28.30;;
23682;SDS011;24897;53.514;10.482;2023-01-05T08:43:12;40.60;;;30.03;;
23682;SDS011;24897;53.514;10.482;2023-01-05T08:45:56;41.80;;;30.47;;
23682;SDS011;24897;53.514;10.482;2023-01-05T08:48:40;39.57;;;30.37;;
23682;SDS011;24897;53.514;10.482;2023-01-05T08:51:25;38.83;;;29.57;;
23682;SDS011;24897;53.514;10.482;2023-01-05T08:54:09;45.13;;;28.67;;
23682;SDS011;24897;53.514;10.482;2023-01-05T08:56:53;42.63;;;30.33;;
23682;SDS011;24897;53.514;10.482;2023-01-05T08:59:38;44.83;;;28.93;;
23682;SDS011;24897;53.514;10.482;2023-01-05T09:02:23;45.67;;;29.00;;
23682;SDS011;24897;53.514;10.482;2023-01-05T09:05:07;37.43;;;27.77;;
23682;SDS011;24897;53.514;10.482;2023-01-05T09:07:52;39.17;;;28.83;;
23682;SDS011;24897;53.514;10.482;2023-01-05T09:10:36;40.33;;;27.93;;
23682;SDS011;24897;53.514;10.482;2023-01-05T09:13:20;36.03;;;27.50;;
23682;SDS011;24897;53.514;10.482;2023-01-05T09:18:50;38.27;;;29.13;;
23682;SDS011;24897;53.514;10.482;2023-01-05T09:21:35;37.60;;;27.90;;
23682;SDS011;24897;53.514;10.482;2023-01-05T09:24:21;36.80;;;27.50;;
23682;SDS011;24897;53.514;10.482;2023-01-05T09:27:06;38.30;;;27.63;;
23682;SDS011;24897;53.514;10.482;2023-01-05T09:29:50;34.87;;;27.07;;
23682;SDS011;24897;53.514;10.482;2023-01-05T09:32:35;41.03;;;27.63;;
23682;SDS011;24897;53.514;10.482;2023-01-05T09:35:20;32.53;;;26.40;;
23682;SDS011;24897;53.514;10.482;2023-01-05T09:38:04;34.40;;;26.97;;
23682;SDS011;24897;53.514;10.482;2023-01-05T09:40:49;35.67;;;28.43;;
23682;SDS011;24897;53.514;10.482;2023-01-05T09:43:36;32.57;;;27.90;;
23682;SDS011;24897;53.514;10.482;2023-01-05T09:46:40;35.10;;;27.70;;
23682;SDS011;24897;53.514;10.482;2023-01-05T09:49:27;33.73;;;27.17;;
23682;SDS011;24897;53.514;10.482;2023-01-05T09:52:13;32.40;;;26.50;;
23682;SDS011;24897;53.514;10.482;2023-01-05T09:54:58;33.43;;;26.73;;
23682;SDS011;24897;53.514;10.482;2023-01-05T10:00:46;33.27;;;27.40;;
23682;SDS011;24897;53.514;10.482;2023-01-05T10:03:58;30.43;;;26.90;;
23682;SDS011;24897;53.514;10.482;2023-01-05T10:06:48;28.10;;;25.10;;
23682;SDS011;24897;53.514;10.482;2023-01-05T10:09:36;30.43;;;25.20;;
23682;SDS011;24897;53.514;10.482;2023-01-05T10:12:42;29.50;;;25.77;;
23682;SDS011;24897;53.514;10.482;2023-01-05T10:15:47;31.13;;;26.27;;
23682;SDS011;24897;53.514;10.482;2023-01-05T10:18:34;30.47;;;25.70;;
23682;SDS011;24897;53.514;10.482;2023-01-05T10:27:24;28.77;;;24.90;;
23682;SDS011;24897;53.514;10.482;2023-01-05T10:33:19;27.80;;;24.77;;
23682;SDS011;24897;53.514;10.482;2023-01-05T10:42:21;28.53;;;25.23;;
23682;SDS011;24897;53.514;10.482;2023-01-05T10:45:23;32.30;;;24.90;;
23682;SDS011;24897;53.514;10.482;2023-01-05T10:48:11;28.70;;;24.97;;
23682;SDS011;24897;53.514;10.482;2023-01-05T10:50:57;30.07;;;27.27;;
23682;SDS011;24897;53.514;10.482;2023-01-05T10:53:42;29.00;;;25.87;;
23682;SDS011;24897;53.514;10.482;2023-01-05T10:56:28;34.03;;;25.60;;
23682;SDS011;24897;53.514;10.482;2023-01-05T10:59:13;27.77;;;24.33;;
23682;SDS011;24897;53.514;10.482;2023-01-05T11:01:57;27.63;;;24.77;;
23682;SDS011;24897;53.514;10.482;2023-01-05T11:04:45;28.67;;;25.53;;
23682;SDS011;24897;53.514;10.482;2023-01-05T11:07:31;28.43;;;25.10;;
23682;SDS011;24897;53.514;10.482;2023-01-05T11:10:30;28.33;;;25.47;;
23682;SDS011;24897;53.514;10.482;2023-01-05T11:13:27;28.73;;;25.20;;
23682;SDS011;24897;53.514;10.482;2023-01-05T11:16:14;29.83;;;25.97;;
23682;SDS011;24897;53.514;10.482;2023-01-05T11:19:05;28.73;;;25.67;;
23682;SDS011;24897;53.514;10.482;2023-01-05T11:21:55;26.53;;;23.30;;
23682;SDS011;24897;53.514;10.482;2023-01-05T11:24:39;22.13;;;20.03;;
23682;SDS011;24897;53.514;10.482;2023-01-05T11:27:23;18.53;;;16.73;;
23682;SDS011;24897;53.514;10.482;2023-01-05T11:32:58;18.07;;;16.37;;
23682;SDS011;24897;53.514;10.482;2023-01-05T11:35:44;21.07;;;18.93;;
23682;SDS011;24897;53.514;10.482;2023-01-05T11:38:29;22.73;;;20.60;;
23682;SDS011;24897;53.514;10.482;2023-01-05T11:41:13;25.40;;;22.73;;
23682;SDS011;24897;53.514;10.482;2023-01-05T11:43:58;26.47;;;24.13;;
23682;SDS011;24897;53.514;10.482;2023-01-05T11:46:46;27.00;;;22.97;;
23682;SDS011;24897;53.514;10.482;2023-01-05T11:49:31;27.97;;;25.20;;
23682;SDS011;24897;53.514;10.482;2023-01-05T11:52:23;28.43;;;25.43;;
23682;SDS011;24897;53.514;10.482;2023-01-05T12:10:00;27.50;;;24.67;;
23682;SDS011;24897;53.514;10.482;2023-01-05T12:19:08;28.33;;;25.30;;
23682;SDS011;24897;53.514;10.482;2023-01-05T12:34:49;29.57;;;26.53;;
23682;SDS011;24897;53.514;10.482;2023-01-05T12:50:25;30.00;;;26.90;;
23682;SDS011;24897;53.514;10.482;2023-01-05T12:53:14;31.53;;;28.13;;
23682;SDS011;24897;53.514;10.482;2023-01-05T12:56:11;29.47;;;26.53;;
23682;SDS011;24897;53.514;10.482;2023-01-05T13:13:57;29.17;;;26.03;;
23682;SDS011;24897;53.514;10.482;2023-01-05T13:16:47;28.93;;;26.13;;
23682;SDS011;24897;53.514;10.482;2023-01-05T13:19:59;29.23;;;26.17;;
23682;SDS011;24897;53.514;10.482;2023-01-05T13:23:18;28.73;;;25.83;;
23682;SDS011;24897;53.514;10.482;2023-01-05T13:26:06;29.17;;;26.10;;
23682;SDS011;24897;53.514;10.482;2023-01-05T13:28:57;27.97;;;25.37;;
23682;SDS011;24897;53.514;10.482;2023-01-05T13:47:22;27.53;;;24.77;;
23682;SDS011;24897;53.514;10.482;2023-01-05T13:50:37;28.07;;;25.17;;
23682;SDS011;24897;53.514;10.482;2023-01-05T13:53:37;28.13;;;25.43;;
23682;SDS011;24897;53.514;10.482;2023-01-05T13:56:24;26.10;;;23.70;;
23682;SDS011;24897;53.514;10.482;2023-01-05T14:02:17;29.03;;;25.67;;
23682;SDS011;24897;53.514;10.482;2023-01-05T14:05:21;27.47;;;24.90;;
23682;SDS011;24897;53.514;10.482;2023-01-05T14:08:13;27.83;;;25.10;;
23682;SDS011;24897;53.514;10.482;2023-01-05T14:14:04;27.97;;;25.27;;
23682;SDS011;24897;53.514;10.482;2023-01-05T14:17:07;28.03;;;25.43;;
23682;SDS011;24897;53.514;10.482;2023-01-05T14:19:51;28.33;;;25.87;;
23682;SDS011;24897;53.514;10.482;2023-01-05T14:22:36;27.73;;;25.10;;
23682;SDS011;24897;53.514;10.482;2023-01-05T14:34:14;29.47;;;26.87;;
23682;SDS011;24897;53.514;10.482;2023-01-05T14:37:00;29.50;;;26.73;;
23682;SDS011;24897;53.514;10.482;2023-01-05T14:39:47;29.93;;;27.27;;
23682;SDS011;24897;53.514;10.482;2023-01-05T14:42:36;30.40;;;27.50;;
23682;SDS011;24897;53.514;10.482;2023-01-05T14:45:29;31.10;;;28.20;;
23682;SDS011;24897;53.514;10.482;2023-01-05T14:48:27;29.13;;;26.53;;
23682;SDS011;24897;53.514;10.482;2023-01-05T14:51:30;30.83;;;28.13;;
23682;SDS011;24897;53.514;10.482;2023-01-05T14:54:15;29.97;;;27.20;;
23682;SDS011;24897;53.514;10.482;2023-01-05T14:57:47;29.90;;;27.00;;
23682;SDS011;24897;53.514;10.482;2023-01-05T15:06:24;31.20;;;28.30;;
23682;SDS011;24897;53.514;10.482;2023-01-05T15:12:35;31.60;;;28.80;;
23682;SDS011;24897;53.514;10.482;2023-01-05T15:30:39;31.23;;;28.23;;
23682;SDS011;24897;53.514;10.482;2023-01-05T15:39:48;31.40;;;28.17;;
23682;SDS011;24897;53.514;10.482;2023-01-05T15:42:42;30.97;;;27.90;;
23682;SDS011;24897;53.514;10.482;2023-01-05T15:45:32;30.50;;;27.50;;
23682;SDS011;24897;53.514;10.482;2023-01-05T15:48:22;30.57;;;27.37;;
23682;SDS011;24897;53.514;10.482;2023-01-05T15:51:08;31.23;;;28.23;;
23682;SDS011;24897;53.514;10.482;2023-01-05T15:53:54;31.03;;;27.83;;
23682;SDS011;24897;53.514;10.482;2023-01-05T15:56:44;30.67;;;27.57;;
23682;SDS011;24897;53.514;10.482;2023-01-05T16:02:30;31.13;;;27.00;;
23682;SDS011;24897;53.514;10.482;2023-01-05T16:08:01;31.47;;;26.80;;
23682;SDS011;24897;53.514;10.482;2023-01-05T16:10:52;31.53;;;27.67;;
23682;SDS011;24897;53.514;10.482;2023-01-05T16:13:40;29.57;;;26.43;;
23682;SDS011;24897;53.514;10.482;2023-01-05T16:16:48;30.47;;;27.10;;
23682;SDS011;24897;53.514;10.482;2023-01-05T16:19:48;30.47;;;27.00;;
23682;SDS011;24897;53.514;10.482;2023-01-05T16:22:40;30.90;;;26.23;;
23682;SDS011;24897;53.514;10.482;2023-01-05T16:25:41;29.80;;;26.60;;
23682;SDS011;24897;53.514;10.482;2023-01-05T16:28:31;32.30;;;25.67;;
23682;SDS011;24897;53.514;10.482;2023-01-05T16:31:32;30.93;;;24.00;;
23682;SDS011;24897;53.514;10.482;2023-01-05T16:34:18;31.00;;;24.50;;
23682;SDS011;24897;53.514;10.482;2023-01-05T16:37:14;30.93;;;24.03;;
23682;SDS011;24897;53.514;10.482;2023-01-05T16:40:00;28.27;;;23.93;;
23682;SDS011;24897;53.514;10.482;2023-01-05T16:42:45;34.43;;;25.73;;
23682;SDS011;24897;53.514;10.482;2023-01-05T16:45:32;57.80;;;41.07;;
23682;SDS011;24897;53.514;10.482;2023-01-05T16:51:44;29.40;;;24.93;;
23682;SDS011;24897;53.514;10.482;2023-01-05T17:00:31;30.10;;;25.63;;
23682;SDS011;24897;53.514;10.482;2023-01-05T17:03:28;29.77;;;25.97;;
23682;SDS011;24897;53.514;10.482;2023-01-05T17:06:31;32.30;;;26.10;;
23682;SDS011;24897;53.514;10.482;2023-01-05T17:12:25;28.43;;;25.27;;
23682;SDS011;24897;53.514;10.482;2023-01-05T17:15:12;30.00;;;26.13;;
23682;SDS011;24897;53.514;10.482;2023-01-05T17:18:18;31.33;;;26.67;;
23682;SDS011;24897;53.514;10.482;2023-01-05T17:21:06;31.67;;;26.20;;
23682;SDS011;24897;53.514;10.482;2023-01-05T17:23:55;31.37;;;26.47;;
23682;SDS011;24897;53.514;10.482;2023-01-05T17:26:42;31.10;;;25.00;;
23682;SDS011;24897;53.514;10.482;2023-01-05T17:29:28;33.07;;;26.50;;
23682;SDS011;24897;53.514;10.482;2023-01-05T17:32:13;29.87;;;26.67;;
23682;SDS011;24897;53.514;10.482;2023-01-05T17:34:57;39.47;;;30.17;;
23682;SDS011;24897;53.514;10.482;2023-01-05T17:37:41;46.07;;;37.77;;
23682;SDS011;24897;53.514;10.482;2023-01-05T17:40:26;54.40;;;40.50;;
23682;SDS011;24897;53.514;10.482;2023-01-05T17:43:11;42.07;;;34.73;;
23682;SDS011;24897;53.514;10.482;2023-01-05T17:45:55;36.87;;;29.40;;
23682;SDS011;24897;53.514;10.482;2023-01-05T17:48:39;42.90;;;31.10;;
23682;SDS011;24897;53.514;10.482;2023-01-05T17:51:24;39.30;;;33.43;;
23682;SDS011;24897;53.514;10.482;2023-01-05T17:54:10;33.33;;;29.67;;
23682;SDS011;24897;53.514;10.482;2023-01-05T17:56:55;34.97;;;30.70;;
23682;SDS011;24897;53.514;10.482;2023-01-05T17:59:39;31.63;;;28.17;;
23682;SDS011;24897;53.514;10.482;2023-01-05T18:02:23;31.37;;;28.07;;
23682;SDS011;24897;53.514;10.482;2023-01-05T18:05:08;34.63;;;27.23;;
23682;SDS011;24897;53.514;10.482;2023-01-05T18:07:53;32.97;;;28.37;;
23682;SDS011;24897;53.514;10.482;2023-01-05T18:10:38;37.37;;;27.17;;
23682;SDS011;24897;53.514;10.482;2023-01-05T18:13:22;41.07;;;30.30;;
23682;SDS011;24897;53.514;10.482;2023-01-05T18:16:08;43.57;;;32.77;;
23682;SDS011;24897;53.514;10.482;2023-01-05T18:18:54;44.23;;;34.30;;
23682;SDS011;24897;53.514;10.482;2023-01-05T18:21:38;42.27;;;31.90;;
23682;SDS011;24897;53.514;10.482;2023-01-05T18:24:22;42.87;;;30.53;;
23682;SDS011;24897;53.514;10.482;2023-01-05T18:27:06;36.47;;;30.33;;
23682;SDS011;24897;53.514;10.482;2023-01-05T18:29:52;34.67;;;29.40;;
23682;SDS011;24897;53.514;10.482;2023-01-05T18:32:37;37.57;;;30.13;;
23682;SDS011;24897;53.514;10.482;2023-01-05T18:35:21;37.43;;;30.83;;
23682;SDS011;24897;53.514;10.482;2023-01-05T18:38:06;37.57;;;32.10;;
23682;SDS011;24897;53.514;10.482;2023-01-05T18:40:50;35.73;;;30.50;;
23682;SDS011;24897;53.514;10.482;2023-01-05T18:43:34;40.23;;;31.17;;
23682;SDS011;24897;53.514;10.482;2023-01-05T18:46:19;42.03;;;31.53;;
23682;SDS011;24897;53.514;10.482;2023-01-05T18:49:03;37.27;;;31.37;;
23682;SDS011;24897;53.514;10.482;2023-01-05T18:51:49;40.60;;;31.80;;
23682;SDS011;24897;53.514;10.482;2023-01-05T18:54:35;39.80;;;30.60;;
23682;SDS011;24897;53.514;10.482;2023-01-05T18:57:19;45.00;;;33.53;;
23682;SDS011;24897;53.514;10.482;2023-01-05T19:00:04;46.63;;;33.83;;
23682;SDS011;24897;53.514;10.482;2023-01-05T19:02:49;59.20;;;40.70;;
23682;SDS011;24897;53.514;10.482;2023-01-05T19:05:36;73.23;;;48.77;;
23682;SDS011;24897;53.514;10.482;2023-01-05T19:08:25;65.10;;;44.83;;
23682;SDS011;24897;53.514;10.482;2023-01-05T19:11:13;58.83;;;42.57;;
23682;SDS011;24897;53.514;10.482;2023-01-05T19:13:59;56.83;;;40.87;;
23682;SDS011;24897;53.514;10.482;2023-01-05T19:16:44;57.60;;;44.10;;